createdAt,value
2024-03-12T00:01:10.050Z,69.31
2024-03-12T00:03:44.036Z,68.92
2024-03-12T00:06:11.838Z,69.35
2024-03-12T00:08:40.677Z,69.21
2024-03-12T00:11:08.948Z,69.50
2024-03-12T00:13:36.157Z,69.33
2024-03-12T00:16:04.818Z,69.55
2024-03-12T00:18:34.188Z,69.56
2024-03-12T00:21:04.496Z,69.49
2024-03-12T00:23:31.534Z,69.29
2024-03-12T00:25:58.521Z,69.21
2024-03-12T00:28:25.571Z,69.26
2024-03-12T00:30:55.045Z,68.87
2024-03-12T00:33:22.295Z,69.24
2024-03-12T00:35:49.473Z,69.02
2024-03-12T00:38:18.859Z,69.09
2024-03-12T00:40:52.233Z,69.14
2024-03-12T00:43:19.410Z,69.13
2024-03-12T00:45:51.308Z,69.42
2024-03-12T00:48:25.121Z,69.25
2024-03-12T00:50:52.236Z,69.39
2024-03-12T00:53:19.220Z,69.36
2024-03-12T00:55:48.478Z,69.29
2024-03-12T00:58:20.858Z,69.48
2024-03-12T01:00:50.183Z,69.30
2024-03-12T01:03:18.356Z,69.25
2024-03-12T01:08:13.612Z,69.27
2024-03-12T01:10:53.269Z,69.20
2024-03-12T01:13:48.755Z,69.28
2024-03-12T01:16:28.036Z,69.56
2024-03-12T01:18:55.245Z,69.68
2024-03-12T01:21:22.380Z,69.60
2024-03-12T01:23:49.994Z,69.43
2024-03-12T01:26:16.997Z,69.52
2024-03-12T01:28:44.048Z,69.48
2024-03-12T01:31:11.130Z,69.43
2024-03-12T01:33:38.255Z,69.44
2024-03-12T01:36:19.893Z,69.75
2024-03-12T01:38:51.685Z,69.62
2024-03-12T01:41:19.072Z,69.51
2024-03-12T01:43:56.594Z,69.85
2024-03-12T01:46:30.494Z,69.81
2024-03-12T01:48:59.774Z,70.06
2024-03-12T01:51:28.736Z,70.43
2024-03-12T01:53:57.603Z,70.16
2024-03-12T01:56:27.631Z,70.44
2024-03-12T01:58:55.113Z,70.58
2024-03-12T02:01:22.600Z,70.38
2024-03-12T02:03:53.096Z,70.40
2024-03-12T02:06:20.906Z,70.45
2024-03-12T02:08:50.190Z,70.57
2024-03-12T02:11:17.726Z,70.45
2024-03-12T02:13:44.967Z,70.32
2024-03-12T02:16:12.075Z,70.39
2024-03-12T02:18:39.467Z,70.69
2024-03-12T02:21:06.991Z,70.59
2024-03-12T02:23:47.361Z,71.03
2024-03-12T02:26:14.581Z,70.80
2024-03-12T02:28:41.623Z,70.77
2024-03-12T02:31:08.762Z,70.99
2024-03-12T02:33:36.734Z,70.67
2024-03-12T02:36:06.272Z,71.10
2024-03-12T02:38:33.324Z,71.03
2024-03-12T02:41:00.396Z,71.14
2024-03-12T02:43:28.903Z,71.16
2024-03-12T02:45:56.360Z,71.32
2024-03-12T02:48:24.753Z,71.45
2024-03-12T02:50:52.558Z,72.09
2024-03-12T02:53:19.564Z,71.95
2024-03-12T02:55:47.704Z,72.31
2024-03-12T02:58:14.906Z,72.36
2024-03-12T03:00:42.915Z,72.23
2024-03-12T03:03:09.926Z,72.19
2024-03-12T03:05:37.004Z,72.61
2024-03-12T03:08:04.367Z,72.71
2024-03-12T03:10:31.377Z,72.40
2024-03-12T03:12:58.490Z,72.68
2024-03-12T03:15:25.593Z,72.64
2024-03-12T03:17:53.848Z,72.49
2024-03-12T03:20:21.240Z,72.64
2024-03-12T03:22:48.321Z,72.80
2024-03-12T03:25:16.020Z,73.08
2024-03-12T03:27:43.589Z,72.54
2024-03-12T03:30:13.912Z,72.59
2024-03-12T03:32:41.060Z,72.25
2024-03-12T03:35:08.467Z,72.66
2024-03-12T03:37:38.222Z,72.91
2024-03-12T03:40:11.033Z,72.65
2024-03-12T03:42:43.124Z,72.65
2024-03-12T03:45:10.433Z,72.78
2024-03-12T03:47:37.562Z,72.88
2024-03-12T03:50:09.399Z,72.90
2024-03-12T03:52:38.227Z,72.66
2024-03-12T03:55:07.835Z,72.92
2024-03-12T03:57:35.234Z,73.02
2024-03-12T04:00:13.247Z,73.34
2024-03-12T04:02:40.920Z,73.40
2024-03-12T04:05:09.010Z,73.66
2024-03-12T04:07:36.077Z,73.71
2024-03-12T04:10:03.759Z,73.70
2024-03-12T04:12:30.940Z,73.96
2024-03-12T04:14:59.165Z,73.88
2024-03-12T04:17:26.320Z,73.87
2024-03-12T04:19:53.382Z,73.82
2024-03-12T04:22:20.425Z,73.96
2024-03-12T04:24:48.062Z,74.17
2024-03-12T04:27:16.147Z,74.64
2024-03-12T04:29:43.880Z,74.89
2024-03-12T04:32:11.093Z,74.88
2024-03-12T04:34:38.371Z,74.89
2024-03-12T04:37:05.800Z,74.98
2024-03-12T04:39:33.361Z,75.32
2024-03-12T04:42:03.361Z,75.54
2024-03-12T04:44:30.919Z,75.33
2024-03-12T04:46:58.425Z,75.69
2024-03-12T04:49:26.522Z,76.10
2024-03-12T04:51:54.375Z,76.19
2024-03-12T04:54:21.511Z,76.81
2024-03-12T04:56:51.724Z,76.70
2024-03-12T04:59:19.105Z,77.02
2024-03-12T05:01:48.792Z,77.23
2024-03-12T05:04:22.421Z,77.01
2024-03-12T05:06:50.912Z,76.91
2024-03-12T05:09:19.201Z,77.07
2024-03-12T05:11:46.931Z,77.15
2024-03-12T05:14:14.385Z,77.33
2024-03-12T05:16:41.429Z,77.26
2024-03-12T05:19:11.882Z,77.23
2024-03-12T05:21:39.454Z,77.51
2024-03-12T05:24:07.126Z,77.57
2024-03-12T05:26:37.377Z,77.83
2024-03-12T05:29:04.477Z,77.67
2024-03-12T05:31:33.630Z,77.85
2024-03-12T05:34:03.139Z,77.59
2024-03-12T05:36:42.946Z,77.96
2024-03-12T05:39:27.458Z,78.33
2024-03-12T05:42:12.835Z,78.07
2024-03-12T05:44:58.650Z,78.05
2024-03-12T05:47:45.148Z,78.32
2024-03-12T05:50:18.296Z,78.43
2024-03-12T05:52:49.331Z,78.42
2024-03-12T05:55:16.707Z,78.24
2024-03-12T05:57:46.864Z,78.39
2024-03-12T06:00:14.285Z,78.58
2024-03-12T06:02:43.025Z,77.94
2024-03-12T06:05:13.836Z,78.11
2024-03-12T06:07:50.879Z,78.24
2024-03-12T06:10:18.126Z,78.15
2024-03-12T06:12:45.671Z,78.70
2024-03-12T06:15:12.683Z,78.63
2024-03-12T06:17:39.782Z,78.57
2024-03-12T06:20:11.155Z,78.39
2024-03-12T06:22:38.945Z,78.90
2024-03-12T06:25:06.894Z,79.34
2024-03-12T06:27:37.551Z,79.50
2024-03-12T06:30:12.152Z,79.59
2024-03-12T06:32:39.168Z,79.70
2024-03-12T06:35:06.609Z,79.44
2024-03-12T06:37:34.162Z,79.17
2024-03-12T06:40:05.108Z,79.38
2024-03-12T06:42:32.140Z,79.15
2024-03-12T06:45:01.628Z,79.34
2024-03-12T06:47:30.042Z,79.21
2024-03-12T06:49:59.663Z,79.18
2024-03-12T06:52:27.836Z,79.41
2024-03-12T06:54:55.010Z,79.26
2024-03-12T06:57:23.378Z,79.91
2024-03-12T06:59:50.843Z,79.59
2024-03-12T07:02:18.883Z,79.50
2024-03-12T07:04:48.445Z,79.55
2024-03-12T07:07:20.616Z,79.83
2024-03-12T07:09:48.417Z,79.98
2024-03-12T07:12:17.332Z,80.29
2024-03-12T07:14:46.669Z,80.48
2024-03-12T07:17:15.409Z,80.73
2024-03-12T07:19:43.992Z,80.70
2024-03-12T07:22:12.080Z,80.24
2024-03-12T07:24:40.712Z,80.36
2024-03-12T07:27:08.666Z,80.01
2024-03-12T07:29:36.039Z,80.19
2024-03-12T07:32:04.963Z,79.81
2024-03-12T07:34:32.850Z,79.84
2024-03-12T07:37:01.613Z,80.34
2024-03-12T07:39:35.710Z,80.39
2024-03-12T07:42:15.376Z,80.54
2024-03-12T07:44:42.935Z,80.70
2024-03-12T07:47:11.684Z,81.02
2024-03-12T07:49:38.818Z,80.86
2024-03-12T07:52:10.518Z,81.27
2024-03-12T07:54:37.871Z,81.14
2024-03-12T07:57:10.998Z,81.70
2024-03-12T07:59:38.327Z,81.95
2024-03-12T08:02:12.663Z,82.06
2024-03-12T08:04:46.569Z,82.51
2024-03-12T08:07:14.722Z,83.13
2024-03-12T08:09:45.172Z,83.91
2024-03-12T08:12:16.337Z,84.26
2024-03-12T08:14:45.709Z,84.90
2024-03-12T08:17:13.652Z,85.17
2024-03-12T08:19:44.427Z,85.18
2024-03-12T08:22:12.022Z,85.48
2024-03-12T08:24:40.391Z,85.88
2024-03-12T08:27:08.309Z,86.46
2024-03-12T08:29:35.445Z,86.45
2024-03-12T08:32:02.627Z,86.18
2024-03-12T08:34:29.774Z,86.37
2024-03-12T08:36:57.592Z,85.81
2024-03-12T08:39:29.237Z,85.92
2024-03-12T08:41:56.922Z,85.63
2024-03-12T08:44:24.749Z,85.86
2024-03-12T08:46:51.771Z,85.85
2024-03-12T08:49:18.885Z,85.87
2024-03-12T08:51:46.271Z,85.79
2024-03-12T08:54:15.163Z,86.29
2024-03-12T08:56:44.161Z,86.01
2024-03-12T08:59:16.775Z,86.52
2024-03-12T09:01:44.960Z,86.36
2024-03-12T09:04:12.450Z,86.62
2024-03-12T09:06:42.039Z,86.75
2024-03-12T09:09:09.257Z,86.65
2024-03-12T09:11:37.975Z,86.59
2024-03-12T09:14:06.023Z,86.84
2024-03-12T09:16:33.148Z,86.66
2024-03-12T09:19:01.433Z,86.79
2024-03-12T09:21:29.110Z,87.15
2024-03-12T09:24:01.575Z,87.19
2024-03-12T09:26:30.280Z,87.48
2024-03-12T09:28:58.731Z,87.90
2024-03-12T09:31:26.149Z,88.08
2024-03-12T09:33:53.917Z,88.20
2024-03-12T09:36:22.265Z,88.27
2024-03-12T09:38:51.907Z,88.68
2024-03-12T09:41:21.882Z,89.00
2024-03-12T09:43:49.695Z,89.13
2024-03-12T09:46:18.143Z,88.89
2024-03-12T09:48:47.796Z,89.21
2024-03-12T09:51:15.123Z,88.97
2024-03-12T09:53:43.621Z,89.24
2024-03-12T09:56:16.390Z,89.27
2024-03-12T09:58:44.344Z,89.40
2024-03-12T10:01:13.732Z,89.78
2024-03-12T10:03:44.855Z,89.88
2024-03-12T10:06:12.012Z,90.29
2024-03-12T10:08:45.152Z,90.51
2024-03-12T10:11:22.361Z,90.72
2024-03-12T10:13:59.929Z,90.61
2024-03-12T10:16:28.829Z,90.85
2024-03-12T10:19:19.610Z,91.33
2024-03-12T10:21:47.159Z,91.03
2024-03-12T10:24:18.276Z,91.24
2024-03-12T10:26:46.126Z,91.80
2024-03-12T10:29:20.825Z,91.82
2024-03-12T10:31:49.243Z,91.74
2024-03-12T10:34:21.340Z,91.97
2024-03-12T10:36:50.684Z,92.06
2024-03-12T10:39:29.635Z,91.77
2024-03-12T10:42:00.454Z,92.35
2024-03-12T10:44:29.970Z,92.23
2024-03-12T10:46:59.870Z,91.88
2024-03-12T10:49:28.920Z,92.49
2024-03-12T10:51:57.752Z,92.28
2024-03-12T10:54:27.710Z,92.39
2024-03-12T10:56:55.821Z,91.88
2024-03-12T10:59:24.701Z,91.98
2024-03-12T11:01:52.035Z,91.68
2024-03-12T11:04:19.163Z,91.50
2024-03-12T11:06:49.877Z,90.88
2024-03-12T11:09:23.053Z,90.90
2024-03-12T11:11:53.461Z,90.71
2024-03-12T11:14:21.678Z,90.77
2024-03-12T11:16:48.957Z,90.31
2024-03-12T11:19:22.003Z,90.50
2024-03-12T11:21:50.933Z,90.18
2024-03-12T11:24:30.618Z,89.94
2024-03-12T11:27:02.061Z,89.90
2024-03-12T11:30:09.923Z,89.99
2024-03-12T11:32:50.130Z,89.77
2024-03-12T11:35:22.499Z,89.64
2024-03-12T11:40:40.629Z,89.34
2024-03-12T11:43:12.437Z,89.44
2024-03-12T11:45:46.488Z,89.49
2024-03-12T11:48:20.174Z,89.27
2024-03-12T11:51:00.290Z,88.97
2024-03-12T11:53:36.621Z,88.58
2024-03-12T11:56:05.701Z,88.45
2024-03-12T11:58:42.102Z,88.31
2024-03-12T12:01:11.613Z,88.12
2024-03-12T12:03:38.975Z,87.88
2024-03-12T12:06:07.443Z,87.66
2024-03-12T12:08:42.470Z,87.88
2024-03-12T12:11:17.019Z,87.47
2024-03-12T12:13:47.539Z,87.51
2024-03-12T12:16:18.872Z,87.71
2024-03-12T12:18:46.654Z,87.98
2024-03-12T12:21:19.775Z,88.06
2024-03-12T12:23:50.453Z,88.08
2024-03-12T12:26:23.061Z,88.54
2024-03-12T12:28:53.974Z,88.23
2024-03-12T12:31:22.852Z,88.07
2024-03-12T12:33:56.799Z,88.67
2024-03-12T12:36:31.326Z,88.68
2024-03-12T12:39:03.790Z,88.47
2024-03-12T12:41:43.392Z,88.79
2024-03-12T12:44:16.177Z,88.88
2024-03-12T12:46:44.100Z,88.21
2024-03-12T12:49:14.352Z,88.23
2024-03-12T12:51:42.665Z,87.80
2024-03-12T12:54:10.709Z,87.70
2024-03-12T12:56:47.366Z,87.54
2024-03-12T12:59:17.702Z,87.40
2024-03-12T13:01:48.341Z,87.15
2024-03-12T13:04:24.588Z,87.30
2024-03-12T13:06:54.891Z,86.91
2024-03-12T13:09:30.260Z,86.63
2024-03-12T13:11:58.557Z,86.87
2024-03-12T13:14:27.079Z,86.63
2024-03-12T13:16:55.042Z,86.71
2024-03-12T13:19:23.927Z,86.79
2024-03-12T13:21:51.734Z,86.92
2024-03-12T13:24:22.015Z,87.03
2024-03-12T13:26:49.647Z,87.04
2024-03-12T13:29:17.064Z,87.17
2024-03-12T13:31:44.764Z,87.25
2024-03-12T13:34:11.835Z,87.49
2024-03-12T13:36:38.933Z,87.75
2024-03-12T13:39:07.416Z,87.82
2024-03-12T13:41:35.742Z,87.95
2024-03-12T13:44:02.858Z,88.41
2024-03-12T13:46:30.021Z,88.53
2024-03-12T13:49:16.588Z,88.97
2024-03-12T13:51:44.656Z,89.40
2024-03-12T13:54:12.060Z,88.80
2024-03-12T13:56:39.322Z,89.32
2024-03-12T13:59:06.482Z,89.33
2024-03-12T14:01:34.275Z,88.99
2024-03-12T14:04:01.889Z,88.95
2024-03-12T14:06:31.126Z,89.03
2024-03-12T14:08:58.404Z,89.01
2024-03-12T14:11:26.739Z,88.97
2024-03-12T14:13:56.199Z,88.51
2024-03-12T14:16:24.008Z,88.88
2024-03-12T14:18:53.202Z,89.11
2024-03-12T14:21:20.462Z,88.64
2024-03-12T14:23:48.684Z,88.46
2024-03-12T14:26:18.997Z,88.37
2024-03-12T14:28:47.042Z,88.20
2024-03-12T14:31:17.494Z,88.35
2024-03-12T14:33:44.820Z,88.26
2024-03-12T14:36:11.890Z,88.08
2024-03-12T14:38:39.183Z,87.72
2024-03-12T14:41:07.465Z,87.85
2024-03-12T14:43:35.539Z,87.57
2024-03-12T14:46:05.922Z,87.73
2024-03-12T14:48:33.352Z,87.61
2024-03-12T14:51:01.059Z,87.37
2024-03-12T14:53:28.589Z,87.18
2024-03-12T14:55:55.867Z,86.66
2024-03-12T14:58:23.368Z,86.87
2024-03-12T15:00:50.671Z,86.62
2024-03-12T15:03:19.887Z,86.48
2024-03-12T15:05:54.813Z,86.27
2024-03-12T15:08:21.985Z,86.56
2024-03-12T15:10:49.126Z,86.42
2024-03-12T15:13:16.359Z,86.25
2024-03-12T15:15:43.460Z,85.96
2024-03-12T15:18:13.893Z,86.38
2024-03-12T15:20:42.743Z,86.00
2024-03-12T15:23:09.805Z,86.32
2024-03-12T15:25:36.886Z,86.16
2024-03-12T15:28:04.319Z,86.13
2024-03-12T15:30:31.942Z,86.18
2024-03-12T15:32:59.198Z,85.88
2024-03-12T15:35:26.461Z,85.87
2024-03-12T15:37:55.121Z,86.16
2024-03-12T15:40:23.716Z,86.16
2024-03-12T15:42:51.060Z,86.54
2024-03-12T15:45:18.226Z,86.49
2024-03-12T15:47:45.694Z,86.45
2024-03-12T15:50:13.610Z,86.82
2024-03-12T15:52:41.566Z,86.58
2024-03-12T15:55:09.611Z,86.88
2024-03-12T15:57:39.892Z,87.09
2024-03-12T16:00:09.463Z,87.18
2024-03-12T16:02:39.845Z,87.12
2024-03-12T16:05:07.445Z,87.11
2024-03-12T16:07:37.517Z,87.38
2024-03-12T16:10:06.178Z,87.35
2024-03-12T16:12:33.712Z,87.21
2024-03-12T16:15:01.039Z,87.43
2024-03-12T16:17:31.256Z,87.42
2024-03-12T16:19:58.531Z,87.12
2024-03-12T16:22:25.659Z,87.45
2024-03-12T16:24:52.839Z,87.38
2024-03-12T16:27:19.930Z,87.24
2024-03-12T16:29:48.445Z,87.17
2024-03-12T16:32:15.663Z,87.38
2024-03-12T16:34:42.984Z,87.14
2024-03-12T16:37:10.500Z,86.97
2024-03-12T16:39:39.844Z,87.00
2024-03-12T16:42:07.337Z,86.93
2024-03-12T16:44:34.322Z,87.31
2024-03-12T16:47:05.736Z,87.03
2024-03-12T16:49:33.916Z,86.95
2024-03-12T16:52:02.253Z,86.99
2024-03-12T16:54:31.954Z,87.24
2024-03-12T16:57:03.564Z,87.31
2024-03-12T16:59:31.808Z,87.16
2024-03-12T17:01:59.453Z,86.84
2024-03-12T17:04:27.946Z,86.92
2024-03-12T17:06:59.445Z,87.04
2024-03-12T17:09:27.067Z,87.18
2024-03-12T17:11:57.478Z,87.14
2024-03-12T17:14:30.734Z,86.81
2024-03-12T17:17:07.826Z,86.89
2024-03-12T17:19:38.236Z,86.98
2024-03-12T17:22:06.908Z,87.36
2024-03-12T17:24:35.638Z,87.12
2024-03-12T17:27:11.208Z,87.00
2024-03-12T17:29:38.633Z,87.16
2024-03-12T17:32:06.626Z,87.42
2024-03-12T17:34:34.209Z,87.70
2024-03-12T17:37:04.966Z,87.54
2024-03-12T17:39:35.296Z,87.73
2024-03-12T17:42:02.958Z,87.72
2024-03-12T17:44:30.469Z,87.48
2024-03-12T17:47:00.876Z,87.69
2024-03-12T17:49:40.972Z,87.90
2024-03-12T17:52:11.795Z,87.81
2024-03-12T17:54:39.739Z,87.70
2024-03-12T17:57:12.401Z,87.82
2024-03-12T17:59:40.812Z,87.83
2024-03-12T18:02:13.508Z,88.04
2024-03-12T18:04:42.207Z,88.14
2024-03-12T18:07:26.773Z,87.97
2024-03-12T18:09:58.207Z,88.11
2024-03-12T18:12:25.577Z,88.02
2024-03-12T18:14:52.625Z,88.18
2024-03-12T18:17:21.518Z,87.79
2024-03-12T18:19:48.686Z,88.38
2024-03-12T18:22:17.585Z,88.00
2024-03-12T18:24:47.353Z,88.20
2024-03-12T18:27:14.457Z,88.20
2024-03-12T18:29:44.164Z,88.10
2024-03-12T18:32:15.483Z,88.29
2024-03-12T18:34:43.441Z,88.22
2024-03-12T18:37:10.939Z,88.59
2024-03-12T18:39:38.189Z,88.66
2024-03-12T18:42:06.970Z,88.49
2024-03-12T18:44:34.231Z,88.82
2024-03-12T18:47:02.943Z,88.72
2024-03-12T18:49:30.379Z,88.88
2024-03-12T18:51:57.900Z,88.74
2024-03-12T18:54:25.368Z,89.11
2024-03-12T18:56:52.980Z,89.06
2024-03-12T18:59:20.412Z,89.21
2024-03-12T19:01:52.170Z,89.56
2024-03-12T19:04:31.042Z,89.57
2024-03-12T19:06:59.815Z,90.08
2024-03-12T19:09:30.355Z,90.47
2024-03-12T19:11:57.889Z,90.37
2024-03-12T19:14:25.335Z,91.02
2024-03-12T19:16:54.006Z,91.72
2024-03-12T19:19:25.060Z,91.89
2024-03-12T19:21:52.778Z,92.53
2024-03-12T19:24:19.959Z,92.91
2024-03-12T19:26:47.013Z,92.95
2024-03-12T19:29:14.046Z,93.10
2024-03-12T19:31:41.501Z,92.97
2024-03-12T19:34:16.446Z,93.30
2024-03-12T19:36:45.233Z,93.38
2024-03-12T19:39:13.408Z,93.46
2024-03-12T19:41:45.335Z,93.47
2024-03-12T19:44:13.260Z,93.84
2024-03-12T19:46:43.730Z,93.89
2024-03-12T19:49:11.208Z,93.93
2024-03-12T19:51:38.615Z,93.71
2024-03-12T19:54:09.476Z,94.11
2024-03-12T19:56:37.285Z,94.61
2024-03-12T19:59:05.901Z,94.77
2024-03-12T20:01:33.283Z,94.59
2024-03-12T20:04:00.723Z,94.94
2024-03-12T20:06:27.908Z,94.75
2024-03-12T20:08:56.213Z,94.86
2024-03-12T20:11:23.532Z,94.93
2024-03-12T20:13:51.027Z,95.21
2024-03-12T20:16:18.147Z,95.29
2024-03-12T20:18:45.939Z,95.13
2024-03-12T20:21:13.125Z,95.51
2024-03-12T20:23:42.424Z,95.24
2024-03-12T20:26:10.732Z,95.54
2024-03-12T20:28:37.741Z,95.44
2024-03-12T20:31:07.353Z,95.62
2024-03-12T20:33:34.362Z,95.80
2024-03-12T20:36:05.753Z,96.25
2024-03-12T20:38:32.933Z,96.29
2024-03-12T20:41:00.184Z,96.53
2024-03-12T20:43:28.702Z,96.59
2024-03-12T20:45:56.019Z,96.83
2024-03-12T20:48:23.488Z,96.61
2024-03-12T20:50:50.705Z,96.95
2024-03-12T20:53:18.738Z,96.75
2024-03-12T20:55:45.894Z,96.79
2024-03-12T20:58:14.704Z,96.92
2024-03-12T21:00:42.456Z,96.90
2024-03-12T21:03:12.109Z,97.35
2024-03-12T21:05:40.120Z,97.14
2024-03-12T21:08:08.117Z,97.48
2024-03-12T21:10:35.494Z,97.52
2024-03-12T21:13:02.875Z,97.83
2024-03-12T21:15:30.738Z,97.74
2024-03-12T21:17:57.826Z,97.82
2024-03-12T21:20:33.620Z,97.90
2024-03-12T21:23:04.590Z,98.10
2024-03-12T21:25:33.227Z,98.36
2024-03-12T21:28:00.489Z,98.54
2024-03-12T21:30:28.974Z,98.81
2024-03-12T21:32:59.386Z,98.89
2024-03-12T21:35:26.552Z,98.76
2024-03-12T21:37:53.701Z,99.08
2024-03-12T21:40:21.099Z,99.13
2024-03-12T21:42:48.300Z,98.75
2024-03-12T21:45:18.788Z,98.87
2024-03-12T21:47:47.841Z,99.04
2024-03-12T21:50:16.843Z,98.98
2024-03-12T21:52:44.374Z,98.90
2024-03-12T21:55:12.757Z,98.59
2024-03-12T21:57:41.603Z,98.83
2024-03-12T22:00:18.691Z,98.85
2024-03-12T22:02:45.983Z,98.47
2024-03-12T22:05:15.743Z,98.83
2024-03-12T22:07:45.131Z,98.69
2024-03-12T22:10:15.478Z,98.69
2024-03-12T22:12:42.940Z,98.95
2024-03-12T22:15:12.928Z,98.77
2024-03-12T22:17:43.488Z,98.96
2024-03-12T22:20:15.692Z,98.97
2024-03-12T22:22:45.961Z,99.02
2024-03-12T22:25:15.596Z,99.16
2024-03-12T22:27:44.975Z,99.22
2024-03-12T22:30:12.748Z,99.83
2024-03-12T22:32:43.393Z,99.72
2024-03-12T22:35:11.017Z,99.88
2024-03-12T22:37:38.761Z,99.98
2024-03-12T22:40:06.809Z,100.00
2024-03-12T22:42:34.443Z,100.00
2024-03-12T22:45:05.154Z,100.00
2024-03-12T22:47:33.507Z,100.00
2024-03-12T22:50:00.811Z,100.00
2024-03-12T22:52:29.831Z,100.00
2024-03-12T22:54:57.158Z,100.00
2024-03-12T22:57:24.677Z,100.00
2024-03-12T22:59:53.026Z,100.00
2024-03-12T23:02:20.535Z,100.00
2024-03-12T23:04:51.976Z,100.00
2024-03-12T23:07:19.724Z,100.00
2024-03-12T23:09:48.432Z,100.00
2024-03-12T23:12:16.255Z,100.00
2024-03-12T23:14:43.734Z,100.00
2024-03-12T23:17:11.181Z,100.00
2024-03-12T23:19:41.441Z,100.00
2024-03-12T23:22:10.313Z,100.00
2024-03-12T23:24:38.935Z,100.00
2024-03-12T23:27:06.217Z,100.00
2024-03-12T23:29:33.355Z,100.00
2024-03-12T23:32:01.173Z,100.00
2024-03-12T23:34:28.543Z,100.00
2024-03-12T23:36:55.730Z,100.00
2024-03-12T23:39:24.772Z,100.00
2024-03-12T23:41:53.463Z,100.00
2024-03-12T23:44:20.601Z,100.00
2024-03-12T23:46:47.780Z,100.00
2024-03-12T23:49:14.961Z,100.00
2024-03-12T23:51:42.211Z,100.00
2024-03-12T23:54:09.244Z,100.00
2024-03-12T23:56:39.316Z,100.00
2024-03-12T23:59:06.803Z,100.00
